VTJ859 KLCK-KBDL
Flight info
| Callsign | VTJ859 |
|---|---|
| Flight time | 1h 11m |
| Altitude | 45000 |
| Route | DCT RDBUV DCT NOWZU DCT JUSEP DCT DJB DCT JHW Q82 MEMMS DCT WILET STELA1 |
| Aircraft | C750/M-SDE3FGHIRWY/LB1 |
Departure
| Time | 2026-05-05 08:12 |
|---|---|
| Airport | Rickenbacker International Airport (KLCK) |
Arrival
| Time | 2026-05-05 09:23 |
|---|---|
| Airport | Bradley International Airport (KBDL) |
| Time | Latitude | Longitude | Altitude | Speed | Heading |
|---|---|---|---|---|---|
| 2026-05-05 07:53 | 39.82672 | -82.91925 | 749 ft | 0 kts | 224° |
| 2026-05-05 08:09 | 39.82660 | -82.91935 | 738 ft | 3 kts | 201° |
| 2026-05-05 08:09 | 39.82645 | -82.91934 | 739 ft | 2 kts | 142° |
| 2026-05-05 08:09 | 39.82620 | -82.91909 | 739 ft | 7 kts | 142° |
| 2026-05-05 08:10 | 39.82623 | -82.91858 | 739 ft | 8 kts | 60° |
| 2026-05-05 08:10 | 39.82666 | -82.91797 | 739 ft | 11 kts | 47° |
| 2026-05-05 08:10 | 39.82731 | -82.91714 | 737 ft | 15 kts | 45° |
| 2026-05-05 08:10 | 39.82782 | -82.91614 | 739 ft | 10 kts | 98° |
| 2026-05-05 08:11 | 39.82765 | -82.91578 | 737 ft | 2 kts | 135° |
| 2026-05-05 08:11 | 39.82713 | -82.91512 | 739 ft | 16 kts | 135° |
| 2026-05-05 08:11 | 39.82633 | -82.91423 | 738 ft | 13 kts | 172° |
| 2026-05-05 08:11 | 39.82565 | -82.91484 | 737 ft | 16 kts | 224° |
| 2026-05-05 08:12 | 39.82274 | -82.91860 | 739 ft | 113 kts | 225° |
| 2026-05-05 08:12 | 39.81668 | -82.92667 | 1332 ft | 121 kts | 225° |
| 2026-05-05 08:12 | 39.81039 | -82.93507 | 1960 ft | 139 kts | 223° |
| 2026-05-05 08:12 | 39.80361 | -82.94452 | 2666 ft | 147 kts | 232° |
| 2026-05-05 08:13 | 39.80279 | -82.95822 | 3344 ft | 174 kts | 284° |
| 2026-05-05 08:13 | 39.81282 | -82.96849 | 4099 ft | 205 kts | 335° |
| 2026-05-05 08:13 | 39.82760 | -82.97026 | 5029 ft | 223 kts | 353° |
| 2026-05-05 08:13 | 39.84373 | -82.96539 | 5710 ft | 252 kts | 11° |
| 2026-05-05 08:14 | 39.86096 | -82.95746 | 6369 ft | 273 kts | 14° |
| 2026-05-05 08:14 | 39.87964 | -82.94891 | 6958 ft | 296 kts | 13° |
| 2026-05-05 08:14 | 39.89967 | -82.94029 | 7850 ft | 305 kts | 12° |
| 2026-05-05 08:14 | 39.91980 | -82.93158 | 9072 ft | 307 kts | 11° |
| 2026-05-05 08:15 | 39.94022 | -82.92267 | 10090 ft | 311 kts | 11° |
| 2026-05-05 08:15 | 39.96130 | -82.91352 | 10614 ft | 332 kts | 11° |
| 2026-05-05 08:15 | 39.97621 | -82.90710 | 10755 ft | 350 kts | 12° |
| 2026-05-05 08:15 | 40.00022 | -82.89664 | 10973 ft | 374 kts | 13° |
| 2026-05-05 08:16 | 40.02484 | -82.88566 | 11880 ft | 372 kts | 13° |
| 2026-05-05 08:16 | 40.04944 | -82.87482 | 12741 ft | 375 kts | 13° |
| 2026-05-05 08:16 | 40.07431 | -82.86408 | 13552 ft | 378 kts | 13° |
| 2026-05-05 08:16 | 40.09933 | -82.85318 | 14253 ft | 381 kts | 13° |
| 2026-05-05 08:17 | 40.12452 | -82.84208 | 14964 ft | 383 kts | 14° |
| 2026-05-05 08:17 | 40.14988 | -82.83092 | 15666 ft | 386 kts | 14° |
| 2026-05-05 08:17 | 40.17545 | -82.81973 | 16388 ft | 389 kts | 14° |
| 2026-05-05 08:17 | 40.20117 | -82.80845 | 17127 ft | 392 kts | 14° |
| 2026-05-05 08:18 | 40.22714 | -82.79703 | 17891 ft | 395 kts | 14° |
| 2026-05-05 08:18 | 40.25328 | -82.78552 | 18591 ft | 398 kts | 14° |
| 2026-05-05 08:18 | 40.27971 | -82.77388 | 19231 ft | 403 kts | 14° |
| 2026-05-05 08:18 | 40.30639 | -82.76213 | 19927 ft | 406 kts | 15° |
| 2026-05-05 08:19 | 40.33328 | -82.75027 | 20649 ft | 410 kts | 15° |
| 2026-05-05 08:19 | 40.36041 | -82.73829 | 21336 ft | 413 kts | 15° |
| 2026-05-05 08:19 | 40.38778 | -82.72620 | 22028 ft | 417 kts | 15° |
| 2026-05-05 08:19 | 40.41485 | -82.71336 | 22662 ft | 422 kts | 19° |
| 2026-05-05 08:20 | 40.44252 | -82.69848 | 23342 ft | 426 kts | 19° |
| 2026-05-05 08:20 | 40.47007 | -82.68368 | 23911 ft | 429 kts | 19° |
| 2026-05-05 08:20 | 40.49786 | -82.66898 | 24482 ft | 432 kts | 19° |
| 2026-05-05 08:20 | 40.52547 | -82.65439 | 25035 ft | 435 kts | 19° |
| 2026-05-05 08:21 | 40.55361 | -82.63931 | 25584 ft | 438 kts | 20° |
| 2026-05-05 08:21 | 40.58196 | -82.62258 | 26116 ft | 443 kts | 21° |
| 2026-05-05 08:21 | 40.60975 | -82.60613 | 26671 ft | 445 kts | 21° |
| 2026-05-05 08:21 | 40.63820 | -82.58961 | 27231 ft | 449 kts | 21° |
| 2026-05-05 08:22 | 40.66680 | -82.57269 | 27779 ft | 452 kts | 21° |
| 2026-05-05 08:22 | 40.69560 | -82.55536 | 28302 ft | 457 kts | 21° |
| 2026-05-05 08:22 | 40.72468 | -82.53799 | 28848 ft | 461 kts | 21° |
| 2026-05-05 08:22 | 40.75401 | -82.52063 | 29391 ft | 464 kts | 20° |
| 2026-05-05 08:23 | 40.78357 | -82.50306 | 29914 ft | 468 kts | 21° |
| 2026-05-05 08:23 | 40.81330 | -82.48526 | 30348 ft | 471 kts | 21° |
| 2026-05-05 08:23 | 40.84324 | -82.46732 | 30787 ft | 474 kts | 20° |
| 2026-05-05 08:23 | 40.87321 | -82.44945 | 31455 ft | 471 kts | 20° |
| 2026-05-05 08:24 | 40.90312 | -82.43189 | 32079 ft | 471 kts | 19° |
| 2026-05-05 08:24 | 40.93307 | -82.41443 | 32671 ft | 470 kts | 19° |
| 2026-05-05 08:24 | 40.96297 | -82.39679 | 33321 ft | 470 kts | 20° |
| 2026-05-05 08:24 | 40.99274 | -82.37910 | 33926 ft | 469 kts | 20° |
| 2026-05-05 08:25 | 41.02250 | -82.36149 | 34478 ft | 468 kts | 20° |
| 2026-05-05 08:25 | 41.05222 | -82.34397 | 35037 ft | 467 kts | 19° |
| 2026-05-05 08:25 | 41.08191 | -82.32640 | 35592 ft | 467 kts | 19° |
| 2026-05-05 08:25 | 41.11158 | -82.30879 | 36123 ft | 467 kts | 19° |
| 2026-05-05 08:26 | 41.14089 | -82.29138 | 36589 ft | 468 kts | 19° |
| 2026-05-05 08:26 | 41.17085 | -82.27363 | 36719 ft | 477 kts | 19° |
| 2026-05-05 08:26 | 41.20150 | -82.25547 | 36715 ft | 488 kts | 19° |
| 2026-05-05 08:26 | 41.23280 | -82.23682 | 36720 ft | 499 kts | 19° |
| 2026-05-05 08:27 | 41.29669 | -82.19681 | 36712 ft | 518 kts | 25° |
| 2026-05-05 08:27 | 41.32684 | -82.16968 | 36711 ft | 530 kts | 34° |
| 2026-05-05 08:27 | 41.35429 | -82.13638 | 36710 ft | 539 kts | 43° |
| 2026-05-05 08:28 | 41.39826 | -82.05430 | 36709 ft | 553 kts | 60° |
| 2026-05-05 08:28 | 41.42514 | -81.95794 | 36699 ft | 558 kts | 73° |
| 2026-05-05 08:29 | 41.44471 | -81.85768 | 36709 ft | 559 kts | 73° |
| 2026-05-05 08:30 | 41.48756 | -81.71377 | 36695 ft | 558 kts | 64° |
| 2026-05-05 08:30 | 41.51439 | -81.61720 | 36684 ft | 559 kts | 70° |
| 2026-05-05 08:31 | 41.54173 | -81.52014 | 36725 ft | 559 kts | 66° |
| 2026-05-05 08:31 | 41.56952 | -81.42317 | 36722 ft | 559 kts | 69° |
| 2026-05-05 08:32 | 41.59641 | -81.32571 | 36698 ft | 559 kts | 67° |
| 2026-05-05 08:32 | 41.62410 | -81.22870 | 36700 ft | 558 kts | 68° |
| 2026-05-05 08:33 | 41.65083 | -81.13128 | 36718 ft | 558 kts | 68° |
| 2026-05-05 08:33 | 41.67821 | -81.03408 | 36728 ft | 559 kts | 68° |
| 2026-05-05 08:34 | 41.70496 | -80.93649 | 36742 ft | 559 kts | 68° |
| 2026-05-05 08:34 | 41.73203 | -80.83906 | 36750 ft | 558 kts | 68° |
| 2026-05-05 08:35 | 41.75872 | -80.74141 | 36751 ft | 558 kts | 68° |
| 2026-05-05 08:35 | 41.78551 | -80.64382 | 36753 ft | 558 kts | 68° |
| 2026-05-05 08:36 | 41.81211 | -80.54606 | 36763 ft | 559 kts | 68° |
| 2026-05-05 08:36 | 41.83849 | -80.44896 | 36744 ft | 558 kts | 68° |
| 2026-05-05 08:37 | 41.86494 | -80.35114 | 36753 ft | 558 kts | 68° |
| 2026-05-05 08:37 | 41.89151 | -80.25252 | 36745 ft | 558 kts | 68° |
| 2026-05-05 08:38 | 41.91781 | -80.15447 | 36730 ft | 558 kts | 68° |
| 2026-05-05 08:38 | 41.94388 | -80.05690 | 36723 ft | 559 kts | 68° |
| 2026-05-05 08:39 | 41.97007 | -79.95853 | 36765 ft | 559 kts | 68° |
| 2026-05-05 08:39 | 41.99618 | -79.85999 | 36756 ft | 560 kts | 68° |
| 2026-05-05 08:40 | 42.02225 | -79.76128 | 36762 ft | 559 kts | 68° |
| 2026-05-05 08:40 | 42.04818 | -79.66262 | 36781 ft | 560 kts | 68° |
| 2026-05-05 08:41 | 42.07404 | -79.56390 | 36792 ft | 560 kts | 69° |
| 2026-05-05 08:41 | 42.09980 | -79.46508 | 36793 ft | 560 kts | 69° |
| 2026-05-05 08:42 | 42.12547 | -79.36624 | 36793 ft | 559 kts | 69° |
| 2026-05-05 08:42 | 42.15103 | -79.26742 | 36784 ft | 559 kts | 69° |
| 2026-05-05 08:43 | 42.17655 | -79.16839 | 36780 ft | 559 kts | 69° |
| 2026-05-05 08:43 | 42.19660 | -79.06713 | 36741 ft | 561 kts | 79° |
| 2026-05-05 08:44 | 42.20830 | -78.96298 | 36759 ft | 562 kts | 79° |
| 2026-05-05 08:44 | 42.22253 | -78.86016 | 36761 ft | 561 kts | 78° |
| 2026-05-05 08:45 | 42.23497 | -78.75608 | 36763 ft | 561 kts | 79° |
| 2026-05-05 08:45 | 42.24847 | -78.65187 | 36788 ft | 559 kts | 78° |
| 2026-05-05 08:46 | 42.26107 | -78.54899 | 36795 ft | 559 kts | 79° |
| 2026-05-05 08:46 | 42.27396 | -78.44524 | 36801 ft | 560 kts | 79° |
| 2026-05-05 08:47 | 42.28678 | -78.34076 | 36797 ft | 561 kts | 79° |
| 2026-05-05 08:47 | 42.29937 | -78.23690 | 36795 ft | 560 kts | 79° |
| 2026-05-05 08:48 | 42.31188 | -78.13381 | 36794 ft | 560 kts | 79° |
| 2026-05-05 08:48 | 42.32427 | -78.02985 | 36791 ft | 560 kts | 79° |
| 2026-05-05 08:49 | 42.33667 | -77.92587 | 36789 ft | 560 kts | 79° |
| 2026-05-05 08:49 | 42.34888 | -77.82200 | 36787 ft | 560 kts | 79° |
| 2026-05-05 08:50 | 42.36108 | -77.71796 | 36781 ft | 561 kts | 79° |
| 2026-05-05 08:50 | 42.37314 | -77.61372 | 36764 ft | 561 kts | 79° |
| 2026-05-05 08:51 | 42.38514 | -77.50957 | 36764 ft | 560 kts | 79° |
| 2026-05-05 08:51 | 42.39703 | -77.40535 | 36769 ft | 561 kts | 79° |
| 2026-05-05 08:52 | 42.40882 | -77.30118 | 36765 ft | 560 kts | 79° |
| 2026-05-05 08:52 | 42.42049 | -77.19700 | 36752 ft | 559 kts | 79° |
| 2026-05-05 08:53 | 42.43209 | -77.09291 | 36752 ft | 559 kts | 79° |
| 2026-05-05 08:53 | 42.44352 | -76.98916 | 36755 ft | 558 kts | 79° |
| 2026-05-05 08:54 | 42.45483 | -76.88507 | 36751 ft | 559 kts | 80° |
| 2026-05-05 08:54 | 42.46604 | -76.78120 | 36780 ft | 557 kts | 79° |
| 2026-05-05 08:55 | 42.47724 | -76.67710 | 36781 ft | 558 kts | 80° |
| 2026-05-05 08:55 | 42.48837 | -76.57299 | 36789 ft | 559 kts | 80° |
| 2026-05-05 08:56 | 42.49938 | -76.46884 | 36782 ft | 555 kts | 80° |
| 2026-05-05 08:56 | 42.51027 | -76.36521 | 36782 ft | 556 kts | 80° |
| 2026-05-05 08:57 | 42.52105 | -76.26140 | 36780 ft | 556 kts | 80° |
| 2026-05-05 08:57 | 42.53167 | -76.15758 | 36778 ft | 556 kts | 80° |
| 2026-05-05 08:58 | 42.54215 | -76.05448 | 36791 ft | 556 kts | 80° |
| 2026-05-05 08:58 | 42.55260 | -75.95057 | 36793 ft | 556 kts | 80° |
| 2026-05-05 08:59 | 42.55449 | -75.84563 | 36781 ft | 560 kts | 95° |
| 2026-05-05 08:59 | 42.53964 | -75.74185 | 36806 ft | 562 kts | 103° |
| 2026-05-05 09:00 | 42.52261 | -75.63881 | 36606 ft | 547 kts | 99° |
| 2026-05-05 09:00 | 42.51679 | -75.58898 | 35838 ft | 524 kts | 97° |
| 2026-05-05 09:00 | 42.51073 | -75.54124 | 35162 ft | 505 kts | 99° |
| 2026-05-05 09:00 | 42.50345 | -75.49518 | 34510 ft | 496 kts | 101° |
| 2026-05-05 09:01 | 42.49631 | -75.44955 | 33866 ft | 495 kts | 99° |
| 2026-05-05 09:01 | 42.49007 | -75.40362 | 33175 ft | 496 kts | 98° |
| 2026-05-05 09:01 | 42.48392 | -75.35763 | 32525 ft | 498 kts | 99° |
| 2026-05-05 09:01 | 42.47712 | -75.31158 | 31870 ft | 499 kts | 100° |
| 2026-05-05 09:02 | 42.47010 | -75.26550 | 31214 ft | 500 kts | 100° |
| 2026-05-05 09:02 | 42.46659 | -75.21885 | 30525 ft | 499 kts | 88° |
| 2026-05-05 09:02 | 42.46780 | -75.17183 | 29907 ft | 499 kts | 86° |
| 2026-05-05 09:02 | 42.46921 | -75.12524 | 29210 ft | 493 kts | 86° |
| 2026-05-05 09:03 | 42.47010 | -75.07906 | 28561 ft | 489 kts | 87° |
| 2026-05-05 09:03 | 42.47077 | -75.03321 | 27932 ft | 483 kts | 87° |
| 2026-05-05 09:03 | 42.47171 | -74.98789 | 27296 ft | 480 kts | 86° |
| 2026-05-05 09:03 | 42.47279 | -74.94292 | 26669 ft | 476 kts | 86° |
| 2026-05-05 09:04 | 42.47369 | -74.89833 | 26042 ft | 472 kts | 87° |
| 2026-05-05 09:04 | 42.47442 | -74.85401 | 25424 ft | 469 kts | 87° |
| 2026-05-05 09:04 | 42.47522 | -74.81001 | 24808 ft | 466 kts | 87° |
| 2026-05-05 09:04 | 42.47609 | -74.76635 | 24201 ft | 462 kts | 87° |
| 2026-05-05 09:05 | 42.47690 | -74.72300 | 23597 ft | 459 kts | 87° |
| 2026-05-05 09:05 | 42.47739 | -74.69445 | 23160 ft | 457 kts | 87° |
| 2026-05-05 09:05 | 42.47811 | -74.65152 | 22825 ft | 455 kts | 87° |
| 2026-05-05 09:05 | 42.47886 | -74.60848 | 22842 ft | 457 kts | 87° |
| 2026-05-05 09:06 | 42.47963 | -74.56544 | 22837 ft | 458 kts | 87° |
| 2026-05-05 09:06 | 42.48034 | -74.52228 | 22838 ft | 458 kts | 87° |
| 2026-05-05 09:06 | 42.48101 | -74.47914 | 22840 ft | 459 kts | 87° |
| 2026-05-05 09:06 | 42.48168 | -74.43591 | 22846 ft | 460 kts | 87° |
| 2026-05-05 09:07 | 42.48237 | -74.39277 | 22836 ft | 458 kts | 87° |
| 2026-05-05 09:07 | 42.48304 | -74.34967 | 22826 ft | 458 kts | 87° |
| 2026-05-05 09:07 | 42.48365 | -74.30664 | 22825 ft | 457 kts | 88° |
| 2026-05-05 09:07 | 42.48426 | -74.26362 | 22826 ft | 457 kts | 87° |
| 2026-05-05 09:08 | 42.48486 | -74.22059 | 22832 ft | 457 kts | 87° |
| 2026-05-05 09:08 | 42.48536 | -74.17755 | 22830 ft | 457 kts | 88° |
| 2026-05-05 09:08 | 42.48596 | -74.13451 | 22823 ft | 456 kts | 87° |
| 2026-05-05 09:08 | 42.48661 | -74.09150 | 22826 ft | 456 kts | 87° |
| 2026-05-05 09:09 | 42.48714 | -74.04845 | 22816 ft | 457 kts | 88° |
| 2026-05-05 09:09 | 42.48760 | -74.00538 | 22817 ft | 457 kts | 88° |
| 2026-05-05 09:09 | 42.48809 | -73.96234 | 22814 ft | 457 kts | 88° |
| 2026-05-05 09:09 | 42.48861 | -73.91929 | 22808 ft | 457 kts | 88° |
| 2026-05-05 09:10 | 42.48910 | -73.87619 | 22818 ft | 458 kts | 88° |
| 2026-05-05 09:10 | 42.48953 | -73.83309 | 22820 ft | 458 kts | 88° |
| 2026-05-05 09:10 | 42.48996 | -73.78996 | 22816 ft | 458 kts | 88° |
| 2026-05-05 09:10 | 42.49040 | -73.74688 | 22817 ft | 458 kts | 88° |
| 2026-05-05 09:11 | 42.49082 | -73.70381 | 22816 ft | 457 kts | 88° |
| 2026-05-05 09:11 | 42.49118 | -73.66092 | 22180 ft | 454 kts | 88° |
| 2026-05-05 09:11 | 42.49151 | -73.61887 | 21425 ft | 445 kts | 88° |
| 2026-05-05 09:11 | 42.49186 | -73.57698 | 20667 ft | 439 kts | 88° |
| 2026-05-05 09:12 | 42.49220 | -73.53579 | 19918 ft | 436 kts | 88° |
| 2026-05-05 09:12 | 42.49232 | -73.49496 | 19176 ft | 431 kts | 91° |
| 2026-05-05 09:12 | 42.48682 | -73.45543 | 18411 ft | 426 kts | 111° |
| 2026-05-05 09:12 | 42.47298 | -73.42055 | 17661 ft | 416 kts | 129° |
| 2026-05-05 09:13 | 42.45379 | -73.39180 | 16984 ft | 410 kts | 137° |
| 2026-05-05 09:13 | 42.43389 | -73.36453 | 16279 ft | 405 kts | 138° |
| 2026-05-05 09:13 | 42.41414 | -73.33757 | 15581 ft | 401 kts | 138° |
| 2026-05-05 09:13 | 42.39476 | -73.31058 | 14889 ft | 398 kts | 137° |
| 2026-05-05 09:14 | 42.37555 | -73.28365 | 14195 ft | 396 kts | 137° |
| 2026-05-05 09:14 | 42.35656 | -73.25743 | 13512 ft | 393 kts | 138° |
| 2026-05-05 09:14 | 42.33751 | -73.23137 | 12810 ft | 387 kts | 138° |
| 2026-05-05 09:14 | 42.31880 | -73.20555 | 12150 ft | 382 kts | 137° |
| 2026-05-05 09:15 | 42.30039 | -73.18000 | 11493 ft | 377 kts | 137° |
| 2026-05-05 09:15 | 42.28217 | -73.15487 | 10889 ft | 372 kts | 137° |
| 2026-05-05 09:15 | 42.26415 | -73.13008 | 10888 ft | 373 kts | 137° |
| 2026-05-05 09:15 | 42.24604 | -73.10526 | 10800 ft | 362 kts | 137° |
| 2026-05-05 09:16 | 42.22894 | -73.08167 | 10333 ft | 339 kts | 137° |
| 2026-05-05 09:16 | 42.21310 | -73.05982 | 10116 ft | 313 kts | 137° |
| 2026-05-05 09:16 | 42.19918 | -73.04059 | 8841 ft | 267 kts | 138° |
| 2026-05-05 09:16 | 42.18607 | -73.02271 | 6262 ft | 290 kts | 140° |
| 2026-05-05 09:17 | 42.17139 | -73.00295 | 4643 ft | 290 kts | 140° |
| 2026-05-05 09:17 | 42.15775 | -72.98400 | 3859 ft | 277 kts | 140° |
| 2026-05-05 09:17 | 42.14455 | -72.96582 | 3523 ft | 265 kts | 141° |
| 2026-05-05 09:17 | 42.13151 | -72.94872 | 3530 ft | 255 kts | 143° |
| 2026-05-05 09:18 | 42.11929 | -72.93304 | 3526 ft | 231 kts | 143° |
| 2026-05-05 09:18 | 42.10802 | -72.91831 | 3524 ft | 221 kts | 143° |
| 2026-05-05 09:18 | 42.09731 | -72.90421 | 3543 ft | 215 kts | 143° |
| 2026-05-05 09:18 | 42.08710 | -72.89096 | 3500 ft | 195 kts | 144° |
| 2026-05-05 09:19 | 42.07752 | -72.87825 | 3545 ft | 194 kts | 144° |
| 2026-05-05 09:19 | 42.06792 | -72.86547 | 3525 ft | 196 kts | 141° |
| 2026-05-05 09:19 | 42.05859 | -72.85226 | 3526 ft | 195 kts | 143° |
| 2026-05-05 09:19 | 42.04899 | -72.83949 | 3534 ft | 194 kts | 143° |
| 2026-05-05 09:20 | 42.03955 | -72.82664 | 3509 ft | 193 kts | 142° |
| 2026-05-05 09:20 | 42.02992 | -72.81342 | 3117 ft | 197 kts | 142° |
| 2026-05-05 09:20 | 42.02054 | -72.80044 | 2790 ft | 191 kts | 142° |
| 2026-05-05 09:20 | 42.01143 | -72.78788 | 2443 ft | 179 kts | 142° |
| 2026-05-05 09:21 | 42.00272 | -72.77592 | 2161 ft | 178 kts | 144° |
| 2026-05-05 09:21 | 41.99428 | -72.76415 | 1889 ft | 172 kts | 142° |
| 2026-05-05 09:21 | 41.98582 | -72.75254 | 1623 ft | 172 kts | 145° |
| 2026-05-05 09:21 | 41.97819 | -72.74222 | 1364 ft | 140 kts | 145° |
| 2026-05-05 09:22 | 41.97189 | -72.73368 | 1164 ft | 123 kts | 146° |
| 2026-05-05 09:22 | 41.96615 | -72.72540 | 894 ft | 122 kts | 137° |
| 2026-05-05 09:22 | 41.96062 | -72.71729 | 881 ft | 118 kts | 140° |
| 2026-05-05 09:22 | 41.95489 | -72.70958 | 704 ft | 117 kts | 142° |
| 2026-05-05 09:23 | 41.94916 | -72.70210 | 435 ft | 110 kts | 141° |
| 2026-05-05 09:23 | 41.94385 | -72.69524 | 300 ft | 104 kts | 139° |
| 2026-05-05 09:23 | 41.93891 | -72.68845 | 209 ft | 98 kts | 137° |
| 2026-05-05 09:23 | 41.93522 | -72.68334 | 202 ft | 46 kts | 133° |
| 2026-05-05 09:24 | 41.93354 | -72.68104 | 203 ft | 24 kts | 137° |
| 2026-05-05 09:24 | 41.93271 | -72.67989 | 204 ft | 15 kts | 140° |
| 2026-05-05 09:24 | 41.93190 | -72.67985 | 203 ft | 12 kts | 211° |
| 2026-05-05 09:24 | 41.93172 | -72.68074 | 202 ft | 11 kts | 312° |
| 2026-05-05 09:25 | 41.93227 | -72.68148 | 202 ft | 11 kts | 314° |
| 2026-05-05 09:25 | 41.93283 | -72.68224 | 202 ft | 11 kts | 314° |
| 2026-05-05 09:25 | 41.93346 | -72.68310 | 208 ft | 15 kts | 316° |
| 2026-05-05 09:25 | 41.93434 | -72.68427 | 208 ft | 20 kts | 314° |
| 2026-05-05 09:26 | 41.93542 | -72.68574 | 205 ft | 23 kts | 314° |
| 2026-05-05 09:26 | 41.93652 | -72.68725 | 203 ft | 22 kts | 314° |
| 2026-05-05 09:26 | 41.93756 | -72.68867 | 207 ft | 20 kts | 313° |
| 2026-05-05 09:26 | 41.93843 | -72.69007 | 209 ft | 20 kts | 311° |
| 2026-05-05 09:27 | 41.93812 | -72.69158 | 205 ft | 19 kts | 225° |
| 2026-05-05 09:27 | 41.93727 | -72.69281 | 206 ft | 16 kts | 249° |
| 2026-05-05 09:27 | 41.93784 | -72.69363 | 206 ft | 11 kts | 358° |
| 2026-05-05 09:27 | 41.93815 | -72.69380 | 202 ft | 0 kts | 313° |